sensor_id;sensor_type;location;lat;lon;timestamp;temperature;humidity
11894;DHT22;6006;49.696;8.662;2022-07-01T00:00:17;16.40;99.90
11894;DHT22;6006;49.696;8.662;2022-07-01T00:02:46;16.40;99.90
11894;DHT22;6006;49.696;8.662;2022-07-01T00:05:13;16.40;99.90
11894;DHT22;6006;49.696;8.662;2022-07-01T00:07:39;16.20;99.90
11894;DHT22;6006;49.696;8.662;2022-07-01T00:10:07;16.10;99.90
11894;DHT22;6006;49.696;8.662;2022-07-01T00:12:34;16.10;99.90
11894;DHT22;6006;49.696;8.662;2022-07-01T00:15:01;16.10;99.90
11894;DHT22;6006;49.696;8.662;2022-07-01T00:17:29;16.10;99.90
11894;DHT22;6006;49.696;8.662;2022-07-01T00:19:57;16.10;99.90
11894;DHT22;6006;49.696;8.662;2022-07-01T00:22:24;16.00;99.90
11894;DHT22;6006;49.696;8.662;2022-07-01T00:24:53;15.90;99.90
11894;DHT22;6006;49.696;8.662;2022-07-01T00:27:20;15.90;99.90
11894;DHT22;6006;49.696;8.662;2022-07-01T00:29:47;15.80;99.90
11894;DHT22;6006;49.696;8.662;2022-07-01T00:32:14;15.60;99.90
11894;DHT22;6006;49.696;8.662;2022-07-01T00:34:41;15.50;99.90
11894;DHT22;6006;49.696;8.662;2022-07-01T00:37:09;15.30;99.90
11894;DHT22;6006;49.696;8.662;2022-07-01T00:39:36;15.30;99.90
11894;DHT22;6006;49.696;8.662;2022-07-01T00:42:03;15.30;99.90
11894;DHT22;6006;49.696;8.662;2022-07-01T00:44:31;15.30;99.90
11894;DHT22;6006;49.696;8.662;2022-07-01T00:47:00;15.30;99.90
11894;DHT22;6006;49.696;8.662;2022-07-01T00:49:27;15.40;99.90
11894;DHT22;6006;49.696;8.662;2022-07-01T00:51:55;15.30;99.90
11894;DHT22;6006;49.696;8.662;2022-07-01T00:54:24;15.20;99.90
11894;DHT22;6006;49.696;8.662;2022-07-01T00:56:52;15.10;99.90
11894;DHT22;6006;49.696;8.662;2022-07-01T00:59:19;15.10;99.90
11894;DHT22;6006;49.696;8.662;2022-07-01T01:01:46;15.00;99.90
11894;DHT22;6006;49.696;8.662;2022-07-01T01:04:13;15.00;99.90
11894;DHT22;6006;49.696;8.662;2022-07-01T01:06:40;15.00;99.90
11894;DHT22;6006;49.696;8.662;2022-07-01T01:09:07;15.00;99.90
11894;DHT22;6006;49.696;8.662;2022-07-01T01:11:35;15.00;99.90
11894;DHT22;6006;49.696;8.662;2022-07-01T01:14:02;14.90;99.90
11894;DHT22;6006;49.696;8.662;2022-07-01T01:16:29;14.80;99.90
11894;DHT22;6006;49.696;8.662;2022-07-01T01:18:55;14.80;99.90
11894;DHT22;6006;49.696;8.662;2022-07-01T01:21:24;14.90;99.90
11894;DHT22;6006;49.696;8.662;2022-07-01T01:23:51;14.80;99.90
11894;DHT22;6006;49.696;8.662;2022-07-01T01:26:19;14.80;99.90
11894;DHT22;6006;49.696;8.662;2022-07-01T01:28:47;14.70;99.90
11894;DHT22;6006;49.696;8.662;2022-07-01T01:31:14;14.70;99.90
11894;DHT22;6006;49.696;8.662;2022-07-01T01:33:41;14.60;99.90
11894;DHT22;6006;49.696;8.662;2022-07-01T01:36:08;14.70;99.90
11894;DHT22;6006;49.696;8.662;2022-07-01T01:38:36;14.70;99.90
11894;DHT22;6006;49.696;8.662;2022-07-01T01:41:04;14.70;99.90
11894;DHT22;6006;49.696;8.662;2022-07-01T01:43:31;14.70;99.90
11894;DHT22;6006;49.696;8.662;2022-07-01T01:46:01;14.60;99.90
11894;DHT22;6006;49.696;8.662;2022-07-01T01:48:28;14.70;99.90
11894;DHT22;6006;49.696;8.662;2022-07-01T01:50:55;14.70;99.90
11894;DHT22;6006;49.696;8.662;2022-07-01T01:53:22;14.70;99.90
11894;DHT22;6006;49.696;8.662;2022-07-01T01:55:50;14.80;99.90
11894;DHT22;6006;49.696;8.662;2022-07-01T01:58:17;14.80;99.90
11894;DHT22;6006;49.696;8.662;2022-07-01T02:00:44;14.80;99.90
11894;DHT22;6006;49.696;8.662;2022-07-01T02:03:11;14.80;99.90
11894;DHT22;6006;49.696;8.662;2022-07-01T02:05:38;14.80;99.90
11894;DHT22;6006;49.696;8.662;2022-07-01T02:08:04;14.80;99.90
11894;DHT22;6006;49.696;8.662;2022-07-01T02:10:31;14.70;99.90
11894;DHT22;6006;49.696;8.662;2022-07-01T02:13:00;14.60;99.90
11894;DHT22;6006;49.696;8.662;2022-07-01T02:15:27;14.70;99.90
11894;DHT22;6006;49.696;8.662;2022-07-01T02:17:53;14.70;99.90
11894;DHT22;6006;49.696;8.662;2022-07-01T02:20:23;14.70;99.90
11894;DHT22;6006;49.696;8.662;2022-07-01T02:22:50;14.60;99.90
11894;DHT22;6006;49.696;8.662;2022-07-01T02:25:18;14.60;99.90
11894;DHT22;6006;49.696;8.662;2022-07-01T02:27:45;14.70;99.90
11894;DHT22;6006;49.696;8.662;2022-07-01T02:30:14;14.70;99.90
11894;DHT22;6006;49.696;8.662;2022-07-01T02:32:41;14.70;99.90
11894;DHT22;6006;49.696;8.662;2022-07-01T02:35:08;14.70;99.90
11894;DHT22;6006;49.696;8.662;2022-07-01T02:37:36;14.70;99.90
11894;DHT22;6006;49.696;8.662;2022-07-01T02:40:04;14.60;99.90
11894;DHT22;6006;49.696;8.662;2022-07-01T02:42:31;14.70;99.90
11894;DHT22;6006;49.696;8.662;2022-07-01T02:45:01;14.70;99.90
11894;DHT22;6006;49.696;8.662;2022-07-01T02:47:32;14.70;99.90
11894;DHT22;6006;49.696;8.662;2022-07-01T02:49:59;14.70;99.90
11894;DHT22;6006;49.696;8.662;2022-07-01T02:52:26;14.60;99.90
11894;DHT22;6006;49.696;8.662;2022-07-01T02:54:53;14.60;99.90
11894;DHT22;6006;49.696;8.662;2022-07-01T02:57:21;14.60;99.90
11894;DHT22;6006;49.696;8.662;2022-07-01T02:59:48;14.60;99.90
11894;DHT22;6006;49.696;8.662;2022-07-01T03:02:16;14.70;99.90
11894;DHT22;6006;49.696;8.662;2022-07-01T03:04:45;14.70;99.90
11894;DHT22;6006;49.696;8.662;2022-07-01T03:07:12;14.60;99.90
11894;DHT22;6006;49.696;8.662;2022-07-01T03:09:39;14.60;99.90
11894;DHT22;6006;49.696;8.662;2022-07-01T03:12:07;14.50;99.90
11894;DHT22;6006;49.696;8.662;2022-07-01T03:14:47;14.50;99.90
11894;DHT22;6006;49.696;8.662;2022-07-01T03:17:14;14.60;99.90
11894;DHT22;6006;49.696;8.662;2022-07-01T03:19:41;14.60;99.90
11894;DHT22;6006;49.696;8.662;2022-07-01T03:22:09;14.60;99.90
11894;DHT22;6006;49.696;8.662;2022-07-01T03:24:36;14.50;99.90
11894;DHT22;6006;49.696;8.662;2022-07-01T03:27:04;14.50;99.90
11894;DHT22;6006;49.696;8.662;2022-07-01T03:29:31;14.50;99.90
11894;DHT22;6006;49.696;8.662;2022-07-01T03:31:58;14.50;99.90
11894;DHT22;6006;49.696;8.662;2022-07-01T03:34:25;14.40;99.90
11894;DHT22;6006;49.696;8.662;2022-07-01T03:36:51;14.40;99.90
11894;DHT22;6006;49.696;8.662;2022-07-01T03:39:20;14.40;99.90
11894;DHT22;6006;49.696;8.662;2022-07-01T03:41:47;14.40;99.90
11894;DHT22;6006;49.696;8.662;2022-07-01T03:44:13;14.50;99.90
11894;DHT22;6006;49.696;8.662;2022-07-01T03:46:40;14.40;99.90
11894;DHT22;6006;49.696;8.662;2022-07-01T03:49:07;14.40;99.90
11894;DHT22;6006;49.696;8.662;2022-07-01T03:51:34;14.50;99.90
11894;DHT22;6006;49.696;8.662;2022-07-01T03:54:01;14.40;99.90
11894;DHT22;6006;49.696;8.662;2022-07-01T03:56:47;14.50;99.90
11894;DHT22;6006;49.696;8.662;2022-07-01T03:59:13;14.50;99.90
11894;DHT22;6006;49.696;8.662;2022-07-01T04:01:40;14.50;99.90
11894;DHT22;6006;49.696;8.662;2022-07-01T04:04:07;14.50;99.90
11894;DHT22;6006;49.696;8.662;2022-07-01T04:06:35;14.50;99.90
11894;DHT22;6006;49.696;8.662;2022-07-01T04:09:02;14.40;99.90
11894;DHT22;6006;49.696;8.662;2022-07-01T04:11:30;14.50;99.90
11894;DHT22;6006;49.696;8.662;2022-07-01T04:13:59;14.50;99.90
11894;DHT22;6006;49.696;8.662;2022-07-01T04:16:26;14.40;99.90
11894;DHT22;6006;49.696;8.662;2022-07-01T04:18:53;14.40;99.90
11894;DHT22;6006;49.696;8.662;2022-07-01T04:21:20;14.50;99.90
11894;DHT22;6006;49.696;8.662;2022-07-01T04:24:04;14.40;99.90
11894;DHT22;6006;49.696;8.662;2022-07-01T04:26:31;14.40;99.90
11894;DHT22;6006;49.696;8.662;2022-07-01T04:29:00;14.30;99.90
11894;DHT22;6006;49.696;8.662;2022-07-01T04:31:27;14.40;99.90
11894;DHT22;6006;49.696;8.662;2022-07-01T04:33:54;14.50;99.90
11894;DHT22;6006;49.696;8.662;2022-07-01T04:36:21;15.00;99.90
11894;DHT22;6006;49.696;8.662;2022-07-01T04:38:48;15.30;99.90
11894;DHT22;6006;49.696;8.662;2022-07-01T04:41:15;15.50;99.90
11894;DHT22;6006;49.696;8.662;2022-07-01T04:44:00;15.30;99.90
11894;DHT22;6006;49.696;8.662;2022-07-01T04:46:27;15.10;99.90
11894;DHT22;6006;49.696;8.662;2022-07-01T04:48:54;15.00;99.90
11894;DHT22;6006;49.696;8.662;2022-07-01T04:51:21;14.80;99.90
11894;DHT22;6006;49.696;8.662;2022-07-01T04:53:48;14.70;99.90
11894;DHT22;6006;49.696;8.662;2022-07-01T04:56:15;14.70;99.90
11894;DHT22;6006;49.696;8.662;2022-07-01T04:58:42;14.60;99.90
11894;DHT22;6006;49.696;8.662;2022-07-01T05:01:10;14.60;99.90
11894;DHT22;6006;49.696;8.662;2022-07-01T05:03:37;14.60;99.90
11894;DHT22;6006;49.696;8.662;2022-07-01T05:06:05;14.50;99.90
11894;DHT22;6006;49.696;8.662;2022-07-01T05:08:32;14.40;99.90
11894;DHT22;6006;49.696;8.662;2022-07-01T05:10:59;14.50;99.90
11894;DHT22;6006;49.696;8.662;2022-07-01T05:13:26;14.50;99.90
11894;DHT22;6006;49.696;8.662;2022-07-01T05:15:53;14.50;99.90
11894;DHT22;6006;49.696;8.662;2022-07-01T05:18:21;14.60;99.90
11894;DHT22;6006;49.696;8.662;2022-07-01T05:21:05;14.70;99.90
11894;DHT22;6006;49.696;8.662;2022-07-01T05:23:50;14.70;99.90
11894;DHT22;6006;49.696;8.662;2022-07-01T05:26:17;14.90;99.90
11894;DHT22;6006;49.696;8.662;2022-07-01T05:28:44;14.90;99.90
11894;DHT22;6006;49.696;8.662;2022-07-01T05:31:11;14.90;99.90
11894;DHT22;6006;49.696;8.662;2022-07-01T05:33:39;14.90;99.90
11894;DHT22;6006;49.696;8.662;2022-07-01T05:36:06;15.10;99.90
11894;DHT22;6006;49.696;8.662;2022-07-01T05:38:33;15.10;99.90
11894;DHT22;6006;49.696;8.662;2022-07-01T05:41:00;15.30;99.90
11894;DHT22;6006;49.696;8.662;2022-07-01T05:43:27;15.50;99.90
11894;DHT22;6006;49.696;8.662;2022-07-01T05:45:55;15.60;99.90
11894;DHT22;6006;49.696;8.662;2022-07-01T05:48:22;15.70;99.90
11894;DHT22;6006;49.696;8.662;2022-07-01T05:50:50;15.60;99.90
11894;DHT22;6006;49.696;8.662;2022-07-01T05:53:17;15.50;99.90
11894;DHT22;6006;49.696;8.662;2022-07-01T05:55:44;15.60;99.90
11894;DHT22;6006;49.696;8.662;2022-07-01T05:58:12;15.50;99.90
11894;DHT22;6006;49.696;8.662;2022-07-01T06:00:40;15.60;99.90
11894;DHT22;6006;49.696;8.662;2022-07-01T06:03:08;15.60;99.90
11894;DHT22;6006;49.696;8.662;2022-07-01T06:05:34;15.50;99.90
11894;DHT22;6006;49.696;8.662;2022-07-01T06:08:03;15.40;99.90
11894;DHT22;6006;49.696;8.662;2022-07-01T06:10:31;15.50;99.90
11894;DHT22;6006;49.696;8.662;2022-07-01T06:12:58;15.50;99.90
11894;DHT22;6006;49.696;8.662;2022-07-01T06:15:25;15.60;99.90
11894;DHT22;6006;49.696;8.662;2022-07-01T06:17:53;15.80;99.90
11894;DHT22;6006;49.696;8.662;2022-07-01T06:20:20;15.90;99.90
11894;DHT22;6006;49.696;8.662;2022-07-01T06:22:47;16.00;99.90
11894;DHT22;6006;49.696;8.662;2022-07-01T06:25:15;15.90;99.90
11894;DHT22;6006;49.696;8.662;2022-07-01T06:27:43;15.90;99.90
11894;DHT22;6006;49.696;8.662;2022-07-01T06:30:12;15.70;99.90
11894;DHT22;6006;49.696;8.662;2022-07-01T06:32:39;15.60;99.90
11894;DHT22;6006;49.696;8.662;2022-07-01T06:35:07;15.40;99.90
11894;DHT22;6006;49.696;8.662;2022-07-01T06:37:34;15.40;99.90
11894;DHT22;6006;49.696;8.662;2022-07-01T06:40:01;15.60;99.90
11894;DHT22;6006;49.696;8.662;2022-07-01T06:42:30;15.50;99.90
11894;DHT22;6006;49.696;8.662;2022-07-01T06:44:57;15.50;99.90
11894;DHT22;6006;49.696;8.662;2022-07-01T06:47:24;15.50;99.90
11894;DHT22;6006;49.696;8.662;2022-07-01T06:49:51;15.60;99.90
11894;DHT22;6006;49.696;8.662;2022-07-01T06:52:17;15.60;99.90
11894;DHT22;6006;49.696;8.662;2022-07-01T06:54:44;15.60;99.90
11894;DHT22;6006;49.696;8.662;2022-07-01T06:57:11;15.60;99.90
11894;DHT22;6006;49.696;8.662;2022-07-01T06:59:39;15.40;99.90
11894;DHT22;6006;49.696;8.662;2022-07-01T07:02:06;15.10;99.90
11894;DHT22;6006;49.696;8.662;2022-07-01T07:04:33;15.10;99.90
11894;DHT22;6006;49.696;8.662;2022-07-01T07:07:00;15.20;99.90
11894;DHT22;6006;49.696;8.662;2022-07-01T07:09:27;15.20;99.90
11894;DHT22;6006;49.696;8.662;2022-07-01T07:11:54;15.30;99.90
11894;DHT22;6006;49.696;8.662;2022-07-01T07:14:21;15.30;99.90
11894;DHT22;6006;49.696;8.662;2022-07-01T07:16:49;15.30;99.90
11894;DHT22;6006;49.696;8.662;2022-07-01T07:19:19;15.10;99.90
11894;DHT22;6006;49.696;8.662;2022-07-01T07:21:46;15.20;99.90
11894;DHT22;6006;49.696;8.662;2022-07-01T07:24:12;15.10;99.90
11894;DHT22;6006;49.696;8.662;2022-07-01T07:26:39;15.10;99.90
11894;DHT22;6006;49.696;8.662;2022-07-01T07:29:06;15.00;99.90
11894;DHT22;6006;49.696;8.662;2022-07-01T07:31:33;15.00;99.90
11894;DHT22;6006;49.696;8.662;2022-07-01T07:34:01;15.00;99.90
11894;DHT22;6006;49.696;8.662;2022-07-01T07:36:28;15.10;99.90
11894;DHT22;6006;49.696;8.662;2022-07-01T07:38:55;15.10;99.90
11894;DHT22;6006;49.696;8.662;2022-07-01T07:41:22;15.00;99.90
11894;DHT22;6006;49.696;8.662;2022-07-01T07:43:49;15.10;99.90
11894;DHT22;6006;49.696;8.662;2022-07-01T07:46:16;15.10;99.90
11894;DHT22;6006;49.696;8.662;2022-07-01T07:48:43;15.20;99.90
11894;DHT22;6006;49.696;8.662;2022-07-01T07:51:11;15.40;99.90
11894;DHT22;6006;49.696;8.662;2022-07-01T07:53:42;15.60;99.90
11894;DHT22;6006;49.696;8.662;2022-07-01T07:56:09;15.70;99.90
11894;DHT22;6006;49.696;8.662;2022-07-01T07:58:36;15.70;99.90
11894;DHT22;6006;49.696;8.662;2022-07-01T08:01:07;15.70;99.90
11894;DHT22;6006;49.696;8.662;2022-07-01T08:03:34;15.70;99.90
11894;DHT22;6006;49.696;8.662;2022-07-01T08:06:01;15.70;99.90
11894;DHT22;6006;49.696;8.662;2022-07-01T08:08:30;15.80;99.90
11894;DHT22;6006;49.696;8.662;2022-07-01T08:10:56;15.80;99.90
11894;DHT22;6006;49.696;8.662;2022-07-01T08:13:23;15.70;99.90
11894;DHT22;6006;49.696;8.662;2022-07-01T08:15:50;15.50;99.90
11894;DHT22;6006;49.696;8.662;2022-07-01T08:18:17;15.60;99.90
11894;DHT22;6006;49.696;8.662;2022-07-01T08:20:44;15.80;99.90
11894;DHT22;6006;49.696;8.662;2022-07-01T08:23:11;15.80;99.90
11894;DHT22;6006;49.696;8.662;2022-07-01T08:25:39;15.80;99.90
11894;DHT22;6006;49.696;8.662;2022-07-01T08:28:06;15.90;99.90
11894;DHT22;6006;49.696;8.662;2022-07-01T08:30:33;16.00;99.90
11894;DHT22;6006;49.696;8.662;2022-07-01T08:33:00;16.20;99.90
11894;DHT22;6006;49.696;8.662;2022-07-01T08:35:28;16.40;99.90
11894;DHT22;6006;49.696;8.662;2022-07-01T08:37:55;16.10;99.90
11894;DHT22;6006;49.696;8.662;2022-07-01T08:40:25;16.00;99.90
11894;DHT22;6006;49.696;8.662;2022-07-01T08:42:56;16.10;99.90
11894;DHT22;6006;49.696;8.662;2022-07-01T08:45:25;16.30;99.90
11894;DHT22;6006;49.696;8.662;2022-07-01T08:47:54;16.00;99.90
11894;DHT22;6006;49.696;8.662;2022-07-01T08:50:23;16.00;99.90
11894;DHT22;6006;49.696;8.662;2022-07-01T08:52:51;16.00;99.90
11894;DHT22;6006;49.696;8.662;2022-07-01T08:55:19;15.90;99.90
11894;DHT22;6006;49.696;8.662;2022-07-01T08:57:46;16.00;99.90
11894;DHT22;6006;49.696;8.662;2022-07-01T09:00:15;16.00;99.90
11894;DHT22;6006;49.696;8.662;2022-07-01T09:02:51;16.10;99.90
11894;DHT22;6006;49.696;8.662;2022-07-01T09:05:18;16.10;99.90
11894;DHT22;6006;49.696;8.662;2022-07-01T09:07:46;16.10;99.90
11894;DHT22;6006;49.696;8.662;2022-07-01T09:10:14;16.00;99.90
11894;DHT22;6006;49.696;8.662;2022-07-01T09:12:43;15.90;99.90
11894;DHT22;6006;49.696;8.662;2022-07-01T09:15:23;15.70;99.90
11894;DHT22;6006;49.696;8.662;2022-07-01T09:17:52;15.60;99.90
11894;DHT22;6006;49.696;8.662;2022-07-01T09:20:27;15.50;99.90
11894;DHT22;6006;49.696;8.662;2022-07-01T09:23:12;15.50;99.90
11894;DHT22;6006;49.696;8.662;2022-07-01T09:25:41;15.50;99.90
11894;DHT22;6006;49.696;8.662;2022-07-01T09:28:11;15.50;99.90
11894;DHT22;6006;49.696;8.662;2022-07-01T09:30:41;15.50;99.90
11894;DHT22;6006;49.696;8.662;2022-07-01T09:33:12;15.60;99.90
11894;DHT22;6006;49.696;8.662;2022-07-01T09:35:40;15.60;99.90
11894;DHT22;6006;49.696;8.662;2022-07-01T09:38:11;15.60;99.90
11894;DHT22;6006;49.696;8.662;2022-07-01T09:40:53;15.70;99.90
11894;DHT22;6006;49.696;8.662;2022-07-01T09:43:22;16.10;99.90
11894;DHT22;6006;49.696;8.662;2022-07-01T09:45:53;16.50;99.90
11894;DHT22;6006;49.696;8.662;2022-07-01T09:48:21;16.50;99.90
11894;DHT22;6006;49.696;8.662;2022-07-01T09:50:48;16.60;99.90
11894;DHT22;6006;49.696;8.662;2022-07-01T09:53:15;17.00;99.90
11894;DHT22;6006;49.696;8.662;2022-07-01T09:55:42;16.80;99.90
11894;DHT22;6006;49.696;8.662;2022-07-01T09:58:09;16.70;99.90
11894;DHT22;6006;49.696;8.662;2022-07-01T10:00:37;16.80;99.90
11894;DHT22;6006;49.696;8.662;2022-07-01T10:03:06;16.80;99.90
11894;DHT22;6006;49.696;8.662;2022-07-01T10:05:41;16.80;99.90
11894;DHT22;6006;49.696;8.662;2022-07-01T10:11:14;17.40;99.90
11894;DHT22;6006;49.696;8.662;2022-07-01T10:13:47;17.80;99.90
11894;DHT22;6006;49.696;8.662;2022-07-01T10:16:16;18.10;99.90
11894;DHT22;6006;49.696;8.662;2022-07-01T10:18:45;17.90;99.90
11894;DHT22;6006;49.696;8.662;2022-07-01T10:21:26;18.10;99.90
11894;DHT22;6006;49.696;8.662;2022-07-01T10:23:56;18.40;99.90
11894;DHT22;6006;49.696;8.662;2022-07-01T10:26:36;18.50;99.90
11894;DHT22;6006;49.696;8.662;2022-07-01T10:29:03;19.00;99.90
11894;DHT22;6006;49.696;8.662;2022-07-01T10:31:35;18.50;99.90
11894;DHT22;6006;49.696;8.662;2022-07-01T10:34:04;18.20;99.90
11894;DHT22;6006;49.696;8.662;2022-07-01T10:36:33;18.60;99.90
11894;DHT22;6006;49.696;8.662;2022-07-01T10:39:16;19.00;99.90
11894;DHT22;6006;49.696;8.662;2022-07-01T10:41:58;19.30;99.90
11894;DHT22;6006;49.696;8.662;2022-07-01T10:44:27;20.00;99.90
11894;DHT22;6006;49.696;8.662;2022-07-01T10:46:55;19.40;99.90
11894;DHT22;6006;49.696;8.662;2022-07-01T10:49:52;18.80;99.90
11894;DHT22;6006;49.696;8.662;2022-07-01T10:52:19;18.70;99.90
11894;DHT22;6006;49.696;8.662;2022-07-01T10:54:48;19.10;99.90
11894;DHT22;6006;49.696;8.662;2022-07-01T10:57:20;18.80;99.90
11894;DHT22;6006;49.696;8.662;2022-07-01T10:59:50;18.90;99.90
11894;DHT22;6006;49.696;8.662;2022-07-01T11:02:19;18.90;99.90
11894;DHT22;6006;49.696;8.662;2022-07-01T11:04:46;19.40;99.90
11894;DHT22;6006;49.696;8.662;2022-07-01T11:07:15;20.40;99.90
11894;DHT22;6006;49.696;8.662;2022-07-01T11:09:42;20.90;99.90
11894;DHT22;6006;49.696;8.662;2022-07-01T11:12:10;21.60;99.90
11894;DHT22;6006;49.696;8.662;2022-07-01T11:14:38;21.10;99.90
11894;DHT22;6006;49.696;8.662;2022-07-01T11:17:06;21.10;99.90
11894;DHT22;6006;49.696;8.662;2022-07-01T11:19:34;22.60;99.90
11894;DHT22;6006;49.696;8.662;2022-07-01T11:22:03;23.20;99.90
11894;DHT22;6006;49.696;8.662;2022-07-01T11:24:32;24.20;97.00
11894;DHT22;6006;49.696;8.662;2022-07-01T11:27:00;23.40;96.40
11894;DHT22;6006;49.696;8.662;2022-07-01T11:29:32;23.30;93.70
11894;DHT22;6006;49.696;8.662;2022-07-01T11:31:58;22.20;93.70
11894;DHT22;6006;49.696;8.662;2022-07-01T11:34:27;21.50;96.10
11894;DHT22;6006;49.696;8.662;2022-07-01T11:36:55;21.50;97.60
11894;DHT22;6006;49.696;8.662;2022-07-01T11:39:41;21.20;97.20
11894;DHT22;6006;49.696;8.662;2022-07-01T11:42:10;21.90;99.30
11894;DHT22;6006;49.696;8.662;2022-07-01T11:44:39;23.90;96.90
11894;DHT22;6006;49.696;8.662;2022-07-01T11:47:08;23.60;92.20
11894;DHT22;6006;49.696;8.662;2022-07-01T11:49:43;22.30;95.20
11894;DHT22;6006;49.696;8.662;2022-07-01T11:52:12;22.70;94.00
11894;DHT22;6006;49.696;8.662;2022-07-01T11:54:41;22.50;96.70
11894;DHT22;6006;49.696;8.662;2022-07-01T11:57:12;23.10;93.30
11894;DHT22;6006;49.696;8.662;2022-07-01T11:59:40;24.70;91.80
11894;DHT22;6006;49.696;8.662;2022-07-01T12:02:09;24.80;85.10
11894;DHT22;6006;49.696;8.662;2022-07-01T12:04:37;24.20;93.10
11894;DHT22;6006;49.696;8.662;2022-07-01T12:07:04;24.80;87.10
11894;DHT22;6006;49.696;8.662;2022-07-01T12:09:32;24.30;87.50
11894;DHT22;6006;49.696;8.662;2022-07-01T12:12:00;24.20;88.10
11894;DHT22;6006;49.696;8.662;2022-07-01T12:14:30;24.70;90.20
11894;DHT22;6006;49.696;8.662;2022-07-01T12:16:59;24.80;88.00
11894;DHT22;6006;49.696;8.662;2022-07-01T12:19:29;24.70;82.60
11894;DHT22;6006;49.696;8.662;2022-07-01T12:22:07;23.90;83.90
11894;DHT22;6006;49.696;8.662;2022-07-01T12:24:34;24.00;89.90
11894;DHT22;6006;49.696;8.662;2022-07-01T12:27:04;24.30;89.20
11894;DHT22;6006;49.696;8.662;2022-07-01T12:29:48;24.60;81.80
11894;DHT22;6006;49.696;8.662;2022-07-01T12:32:16;24.20;80.40
11894;DHT22;6006;49.696;8.662;2022-07-01T12:34:45;24.20;80.70
11894;DHT22;6006;49.696;8.662;2022-07-01T12:37:14;23.30;86.20
11894;DHT22;6006;49.696;8.662;2022-07-01T12:39:45;23.10;88.70
11894;DHT22;6006;49.696;8.662;2022-07-01T12:42:26;22.20;85.90
11894;DHT22;6006;49.696;8.662;2022-07-01T12:44:55;21.70;85.40
11894;DHT22;6006;49.696;8.662;2022-07-01T12:47:25;21.90;86.20
11894;DHT22;6006;49.696;8.662;2022-07-01T12:50:10;21.10;90.00
11894;DHT22;6006;49.696;8.662;2022-07-01T12:52:43;21.80;92.50
11894;DHT22;6006;49.696;8.662;2022-07-01T12:55:16;23.60;85.80
11894;DHT22;6006;49.696;8.662;2022-07-01T12:57:46;25.20;78.90
11894;DHT22;6006;49.696;8.662;2022-07-01T13:00:14;26.80;71.60
11894;DHT22;6006;49.696;8.662;2022-07-01T13:02:42;26.90;68.90
11894;DHT22;6006;49.696;8.662;2022-07-01T13:05:09;27.20;68.60
11894;DHT22;6006;49.696;8.662;2022-07-01T13:07:36;25.40;68.30
11894;DHT22;6006;49.696;8.662;2022-07-01T13:10:04;25.50;72.00
11894;DHT22;6006;49.696;8.662;2022-07-01T13:12:31;26.30;69.00
11894;DHT22;6006;49.696;8.662;2022-07-01T13:14:59;26.00;65.90
11894;DHT22;6006;49.696;8.662;2022-07-01T13:17:27;25.40;66.90
11894;DHT22;6006;49.696;8.662;2022-07-01T13:19:54;25.00;69.20
11894;DHT22;6006;49.696;8.662;2022-07-01T13:22:21;24.20;70.20
11894;DHT22;6006;49.696;8.662;2022-07-01T13:24:48;24.80;68.90
11894;DHT22;6006;49.696;8.662;2022-07-01T13:27:15;24.30;67.30
11894;DHT22;6006;49.696;8.662;2022-07-01T13:29:42;24.00;71.20
11894;DHT22;6006;49.696;8.662;2022-07-01T13:32:11;24.10;73.10
11894;DHT22;6006;49.696;8.662;2022-07-01T13:34:38;23.90;68.70
11894;DHT22;6006;49.696;8.662;2022-07-01T13:37:05;23.00;74.40
11894;DHT22;6006;49.696;8.662;2022-07-01T13:39:31;23.40;75.90
11894;DHT22;6006;49.696;8.662;2022-07-01T13:41:58;23.30;76.80
11894;DHT22;6006;49.696;8.662;2022-07-01T13:44:25;22.80;82.60
11894;DHT22;6006;49.696;8.662;2022-07-01T13:46:52;22.30;77.70
11894;DHT22;6006;49.696;8.662;2022-07-01T13:49:21;22.20;82.50
11894;DHT22;6006;49.696;8.662;2022-07-01T13:51:48;22.30;82.60
11894;DHT22;6006;49.696;8.662;2022-07-01T13:54:15;22.40;81.30
11894;DHT22;6006;49.696;8.662;2022-07-01T13:56:42;21.60;82.90
11894;DHT22;6006;49.696;8.662;2022-07-01T13:59:11;21.30;85.60
11894;DHT22;6006;49.696;8.662;2022-07-01T14:01:38;20.90;85.30
11894;DHT22;6006;49.696;8.662;2022-07-01T14:04:05;20.90;92.30
11894;DHT22;6006;49.696;8.662;2022-07-01T14:06:33;20.90;91.20
11894;DHT22;6006;49.696;8.662;2022-07-01T14:09:00;20.90;93.70
11894;DHT22;6006;49.696;8.662;2022-07-01T14:11:27;20.90;93.20
11894;DHT22;6006;49.696;8.662;2022-07-01T14:13:54;20.70;92.10
11894;DHT22;6006;49.696;8.662;2022-07-01T14:16:21;21.30;92.40
11894;DHT22;6006;49.696;8.662;2022-07-01T14:18:48;21.60;91.40
11894;DHT22;6006;49.696;8.662;2022-07-01T14:21:17;22.10;90.10
11894;DHT22;6006;49.696;8.662;2022-07-01T14:23:47;22.20;88.90
11894;DHT22;6006;49.696;8.662;2022-07-01T14:26:14;23.10;87.10
11894;DHT22;6006;49.696;8.662;2022-07-01T14:28:42;23.50;86.00
11894;DHT22;6006;49.696;8.662;2022-07-01T14:31:08;23.60;82.40
11894;DHT22;6006;49.696;8.662;2022-07-01T14:33:36;23.60;86.60
11894;DHT22;6006;49.696;8.662;2022-07-01T14:36:03;23.10;85.30
11894;DHT22;6006;49.696;8.662;2022-07-01T14:38:30;23.40;83.00
11894;DHT22;6006;49.696;8.662;2022-07-01T14:40:59;23.50;81.70
11894;DHT22;6006;49.696;8.662;2022-07-01T14:43:26;22.80;80.10
11894;DHT22;6006;49.696;8.662;2022-07-01T14:45:55;23.10;82.50
11894;DHT22;6006;49.696;8.662;2022-07-01T14:48:22;23.60;79.40
11894;DHT22;6006;49.696;8.662;2022-07-01T14:50:48;24.40;74.30
11894;DHT22;6006;49.696;8.662;2022-07-01T14:53:15;25.30;76.70
11894;DHT22;6006;49.696;8.662;2022-07-01T14:55:42;26.50;66.40
11894;DHT22;6006;49.696;8.662;2022-07-01T14:58:10;26.00;66.60
11894;DHT22;6006;49.696;8.662;2022-07-01T15:00:37;25.10;67.00
11894;DHT22;6006;49.696;8.662;2022-07-01T15:03:04;25.20;68.70
11894;DHT22;6006;49.696;8.662;2022-07-01T15:05:32;24.30;74.70
11894;DHT22;6006;49.696;8.662;2022-07-01T15:07:59;23.00;76.80
11894;DHT22;6006;49.696;8.662;2022-07-01T15:10:26;22.50;80.10
11894;DHT22;6006;49.696;8.662;2022-07-01T15:12:53;22.90;78.70
11894;DHT22;6006;49.696;8.662;2022-07-01T15:15:21;23.70;76.00
11894;DHT22;6006;49.696;8.662;2022-07-01T15:17:48;24.00;73.80
11894;DHT22;6006;49.696;8.662;2022-07-01T15:20:16;23.90;74.40
11894;DHT22;6006;49.696;8.662;2022-07-01T15:22:43;23.90;72.70
11894;DHT22;6006;49.696;8.662;2022-07-01T15:25:11;23.30;75.60
11894;DHT22;6006;49.696;8.662;2022-07-01T15:27:39;23.10;77.60
11894;DHT22;6006;49.696;8.662;2022-07-01T15:30:07;23.20;75.60
11894;DHT22;6006;49.696;8.662;2022-07-01T15:32:36;22.90;76.30
11894;DHT22;6006;49.696;8.662;2022-07-01T15:35:03;23.00;79.30
11894;DHT22;6006;49.696;8.662;2022-07-01T15:37:31;22.80;88.60
11894;DHT22;6006;49.696;8.662;2022-07-01T15:39:58;22.30;84.40
11894;DHT22;6006;49.696;8.662;2022-07-01T15:42:25;22.40;81.80
11894;DHT22;6006;49.696;8.662;2022-07-01T15:44:52;22.40;77.10
11894;DHT22;6006;49.696;8.662;2022-07-01T15:47:19;22.40;78.00
11894;DHT22;6006;49.696;8.662;2022-07-01T15:50:06;22.40;81.40
11894;DHT22;6006;49.696;8.662;2022-07-01T15:52:33;22.40;85.00
11894;DHT22;6006;49.696;8.662;2022-07-01T15:54:59;22.50;78.90